createdAt,value
2022-12-08T00:01:18.782Z,0.80
2022-12-08T00:03:48.502Z,1.00
2022-12-08T00:06:43.653Z,1.10
2022-12-08T00:09:25.330Z,0.80
2022-12-08T00:11:59.388Z,0.45
2022-12-08T00:14:31.623Z,0.60
2022-12-08T00:17:02.224Z,0.20
2022-12-08T00:19:31.769Z,0.50
2022-12-08T00:22:01.251Z,0.30
2022-12-08T00:24:33.043Z,0.63
2022-12-08T00:27:02.439Z,0.65
2022-12-08T00:29:31.174Z,0.30
2022-12-08T00:32:01.548Z,0.50
2022-12-08T00:34:30.251Z,0.50
2022-12-08T00:36:59.198Z,0.40
2022-12-08T00:39:28.127Z,0.70
2022-12-08T00:42:15.647Z,0.52
2022-12-08T00:44:46.467Z,0.40
2022-12-08T00:47:21.015Z,0.40
2022-12-08T00:49:52.706Z,0.30
2022-12-08T00:52:21.870Z,0.30
2022-12-08T00:54:50.875Z,0.50
2022-12-08T00:57:19.482Z,0.30
2022-12-08T00:59:48.582Z,0.40
2022-12-08T01:02:18.454Z,0.60
2022-12-08T01:04:47.527Z,0.80
2022-12-08T01:07:16.387Z,0.50
2022-12-08T01:09:45.365Z,0.40
2022-12-08T01:12:14.150Z,0.30
2022-12-08T01:14:43.052Z,0.30
2022-12-08T01:17:11.718Z,0.50
2022-12-08T01:19:42.354Z,0.68
2022-12-08T01:22:10.976Z,0.32
2022-12-08T01:24:40.242Z,0.67
2022-12-08T01:27:08.801Z,0.52
2022-12-08T01:29:38.189Z,0.75
2022-12-08T01:32:07.049Z,0.50
2022-12-08T01:34:36.505Z,0.57
2022-12-08T01:37:07.126Z,0.40
2022-12-08T01:39:36.678Z,0.20
2022-12-08T01:42:05.689Z,0.20
2022-12-08T01:45:03.967Z,0.30
2022-12-08T01:47:39.311Z,0.40
2022-12-08T01:50:11.943Z,0.30
2022-12-08T01:52:44.195Z,0.20
2022-12-08T01:55:17.812Z,0.30
2022-12-08T01:57:50.464Z,0.20
2022-12-08T02:00:22.707Z,0.20
2022-12-08T02:02:56.510Z,0.30
2022-12-08T02:05:29.241Z,0.17
2022-12-08T02:08:04.509Z,0.20
2022-12-08T02:10:36.679Z,0.50
2022-12-08T02:13:07.450Z,0.30
2022-12-08T02:15:42.182Z,0.37
2022-12-08T02:18:29.208Z,0.40
2022-12-08T02:21:05.570Z,0.40
2022-12-08T02:23:47.519Z,0.30
2022-12-08T02:26:52.780Z,0.43
2022-12-08T02:29:43.023Z,0.40
2022-12-08T02:32:34.189Z,0.38
2022-12-08T02:35:11.914Z,0.30
2022-12-08T02:37:45.694Z,0.45
2022-12-08T02:40:20.801Z,0.50
2022-12-08T02:42:56.989Z,0.70
2022-12-08T02:45:31.917Z,0.82
2022-12-08T02:48:02.285Z,1.15
2022-12-08T02:50:32.583Z,0.57
2022-12-08T02:53:02.375Z,0.52
2022-12-08T02:55:39.792Z,0.50
2022-12-08T02:58:27.847Z,0.30
2022-12-08T03:01:13.747Z,0.30
2022-12-08T03:03:52.514Z,0.30
2022-12-08T03:06:30.516Z,0.30
2022-12-08T03:09:03.651Z,0.30
2022-12-08T03:11:38.606Z,0.35
2022-12-08T03:14:10.303Z,0.40
2022-12-08T03:16:44.171Z,0.50
2022-12-08T03:19:20.162Z,0.20
2022-12-08T03:21:55.339Z,0.40
2022-12-08T03:24:24.625Z,0.40
2022-12-08T03:26:59.125Z,0.30
2022-12-08T03:29:28.577Z,0.40
2022-12-08T03:32:00.033Z,0.30
2022-12-08T03:34:31.053Z,0.23
2022-12-08T03:37:02.777Z,0.30
2022-12-08T03:39:31.950Z,0.40
2022-12-08T03:42:00.931Z,0.30
2022-12-08T03:44:29.801Z,0.30
2022-12-08T03:46:58.294Z,0.23
2022-12-08T03:49:27.474Z,0.30
2022-12-08T03:51:56.485Z,0.32
2022-12-08T03:54:26.919Z,0.20
2022-12-08T03:56:56.148Z,0.20
2022-12-08T03:59:24.859Z,0.20
2022-12-08T04:01:53.787Z,0.30
2022-12-08T04:04:22.838Z,0.50
2022-12-08T04:06:52.299Z,0.20
2022-12-08T04:09:20.929Z,0.22
2022-12-08T04:11:51.127Z,0.30
2022-12-08T04:14:19.885Z,0.30
2022-12-08T04:16:49.114Z,0.30
2022-12-08T04:19:18.147Z,0.30
2022-12-08T04:21:46.924Z,0.30
2022-12-08T04:24:15.484Z,0.40
2022-12-08T04:26:44.587Z,0.25
2022-12-08T04:29:14.805Z,0.30
2022-12-08T04:31:43.996Z,0.30
2022-12-08T04:34:12.654Z,0.30
2022-12-08T04:36:41.702Z,0.30
2022-12-08T04:39:10.230Z,0.20
2022-12-08T04:41:39.293Z,0.35
2022-12-08T04:44:08.105Z,0.20
2022-12-08T04:46:43.132Z,0.40
2022-12-08T04:49:12.433Z,0.30
2022-12-08T04:51:41.288Z,0.30
2022-12-08T04:54:10.579Z,0.30
2022-12-08T04:56:39.345Z,0.20
2022-12-08T04:59:08.138Z,0.28
2022-12-08T05:01:36.815Z,0.30
2022-12-08T05:04:07.396Z,0.28
2022-12-08T05:06:35.951Z,0.40
2022-12-08T05:09:04.872Z,0.30
2022-12-08T05:11:33.554Z,0.40
2022-12-08T05:14:02.777Z,0.80
2022-12-08T05:16:31.687Z,1.45
2022-12-08T05:19:00.558Z,1.20
2022-12-08T05:21:30.786Z,0.60
2022-12-08T05:23:59.826Z,0.57
2022-12-08T05:26:28.840Z,0.40
2022-12-08T05:28:57.921Z,0.70
2022-12-08T05:31:26.860Z,0.60
2022-12-08T05:34:00.972Z,0.60
2022-12-08T05:36:33.285Z,0.88
2022-12-08T05:39:02.448Z,2.63
2022-12-08T05:41:31.546Z,1.73
2022-12-08T05:44:00.259Z,1.30
2022-12-08T05:46:29.260Z,1.10
2022-12-08T05:48:58.349Z,0.57
2022-12-08T05:51:27.911Z,0.67
2022-12-08T05:53:58.187Z,1.08
2022-12-08T05:56:27.189Z,0.60
2022-12-08T05:58:55.810Z,0.70
2022-12-08T06:01:27.788Z,0.88
2022-12-08T06:03:58.220Z,0.30
2022-12-08T06:06:27.074Z,0.40
2022-12-08T06:08:57.780Z,0.30
2022-12-08T06:11:29.323Z,0.30
2022-12-08T06:13:59.008Z,0.30
2022-12-08T06:16:29.179Z,0.30
2022-12-08T06:18:58.661Z,0.38
2022-12-08T06:21:27.388Z,0.52
2022-12-08T06:23:57.961Z,0.20
2022-12-08T06:26:26.997Z,0.25
2022-12-08T06:28:55.733Z,0.30
2022-12-08T06:31:26.321Z,0.40
2022-12-08T06:33:56.183Z,0.68
2022-12-08T06:36:28.134Z,0.60
2022-12-08T06:38:58.802Z,0.35
2022-12-08T06:41:27.530Z,0.50
2022-12-08T06:43:57.564Z,0.45
2022-12-08T06:46:26.238Z,0.50
2022-12-08T06:48:55.464Z,0.55
2022-12-08T06:51:24.382Z,1.02
2022-12-08T06:53:53.197Z,0.40
2022-12-08T06:56:28.134Z,0.47
2022-12-08T06:58:57.874Z,0.65
2022-12-08T07:01:26.794Z,0.40
2022-12-08T07:03:55.676Z,0.70
2022-12-08T07:06:25.812Z,1.20
2022-12-08T07:08:54.895Z,0.80
2022-12-08T07:11:25.546Z,0.90
2022-12-08T07:13:56.890Z,0.60
2022-12-08T07:16:26.196Z,0.80
2022-12-08T07:18:54.787Z,0.60
2022-12-08T07:21:23.636Z,0.73
2022-12-08T07:23:57.366Z,0.70
2022-12-08T07:26:28.766Z,0.82
2022-12-08T07:28:57.358Z,0.75
2022-12-08T07:31:28.093Z,0.60
2022-12-08T07:33:58.721Z,0.70
2022-12-08T07:36:28.267Z,0.73
2022-12-08T07:38:57.306Z,0.77
2022-12-08T07:41:27.408Z,0.80
2022-12-08T07:43:58.549Z,0.60
2022-12-08T07:46:28.122Z,0.93
2022-12-08T07:48:57.345Z,0.70
2022-12-08T07:51:26.661Z,0.68
2022-12-08T07:53:55.479Z,0.70
2022-12-08T07:56:25.083Z,0.60
2022-12-08T07:58:54.178Z,0.77
2022-12-08T08:01:27.278Z,0.80
2022-12-08T08:03:57.610Z,0.60
2022-12-08T08:06:26.258Z,0.93
2022-12-08T08:08:55.860Z,1.20
2022-12-08T08:11:24.983Z,0.70
2022-12-08T08:13:54.541Z,0.85
2022-12-08T08:16:24.551Z,0.70
2022-12-08T08:18:54.328Z,1.00
2022-12-08T08:24:13.992Z,1.00
2022-12-08T08:26:42.666Z,1.20
2022-12-08T08:29:12.475Z,1.10
2022-12-08T08:31:42.769Z,1.10
2022-12-08T08:34:12.831Z,1.00
2022-12-08T08:36:41.915Z,0.75
2022-12-08T08:39:12.735Z,0.75
2022-12-08T08:41:41.642Z,0.80
2022-12-08T08:44:11.451Z,0.90
2022-12-08T08:46:40.188Z,0.90
2022-12-08T08:49:11.072Z,0.70
2022-12-08T08:51:40.015Z,0.85
2022-12-08T08:54:08.787Z,1.00
2022-12-08T08:56:37.755Z,1.00
2022-12-08T08:59:06.330Z,0.90
2022-12-08T09:01:35.887Z,1.00
2022-12-08T09:04:04.670Z,0.93
2022-12-08T09:06:35.724Z,0.70
2022-12-08T09:09:04.788Z,0.75
2022-12-08T09:11:34.485Z,0.97
2022-12-08T09:14:03.463Z,0.80
2022-12-08T09:16:35.134Z,0.75
2022-12-08T09:19:08.527Z,1.10
2022-12-08T09:21:38.562Z,1.25
2022-12-08T09:24:10.765Z,1.20
2022-12-08T09:26:39.818Z,1.00
2022-12-08T09:29:08.374Z,1.00
2022-12-08T09:31:37.814Z,1.10
2022-12-08T09:34:06.772Z,0.60
2022-12-08T09:36:38.289Z,0.80
2022-12-08T09:39:06.951Z,0.80
2022-12-08T09:41:44.761Z,0.90
2022-12-08T09:44:35.576Z,1.17
2022-12-08T09:47:10.776Z,3.33
2022-12-08T09:49:43.464Z,2.87
2022-12-08T09:52:22.712Z,1.20
2022-12-08T09:54:53.211Z,1.15
2022-12-08T09:57:24.062Z,0.80
2022-12-08T09:59:57.371Z,1.02
2022-12-08T10:02:31.268Z,0.67
2022-12-08T10:05:01.361Z,0.60
2022-12-08T10:07:40.494Z,0.70
2022-12-08T10:10:22.581Z,0.40
2022-12-08T10:12:56.558Z,0.60
2022-12-08T10:15:38.368Z,0.50
2022-12-08T10:18:15.520Z,0.68
2022-12-08T10:20:51.437Z,0.50
2022-12-08T10:23:28.937Z,0.68
2022-12-08T10:26:02.853Z,0.82
2022-12-08T10:28:36.699Z,1.10
2022-12-08T10:31:08.211Z,0.73
2022-12-08T10:33:36.917Z,0.73
2022-12-08T10:36:05.706Z,0.75
2022-12-08T10:38:38.055Z,0.70
2022-12-08T10:41:12.888Z,0.70
2022-12-08T10:43:47.855Z,0.95
2022-12-08T10:46:19.769Z,0.60
2022-12-08T10:48:53.468Z,0.70
2022-12-08T10:51:39.221Z,0.60
2022-12-08T10:54:28.449Z,0.70
2022-12-08T10:56:59.125Z,0.60
2022-12-08T10:59:28.332Z,1.00
2022-12-08T11:01:58.948Z,1.23
2022-12-08T11:04:35.940Z,1.00
2022-12-08T11:07:07.099Z,0.70
2022-12-08T11:09:46.923Z,0.98
2022-12-08T11:12:17.250Z,0.90
2022-12-08T11:14:51.583Z,0.52
2022-12-08T11:17:27.150Z,0.80
2022-12-08T11:20:01.683Z,0.73
2022-12-08T11:22:34.378Z,0.65
2022-12-08T11:25:19.037Z,0.90
2022-12-08T11:27:50.237Z,0.70
2022-12-08T11:30:22.751Z,0.50
2022-12-08T11:32:56.228Z,0.40
2022-12-08T11:35:28.319Z,0.77
2022-12-08T11:38:20.608Z,0.90
2022-12-08T11:40:54.585Z,0.80
2022-12-08T11:43:29.382Z,0.60
2022-12-08T11:46:03.083Z,0.80
2022-12-08T11:48:37.542Z,0.70
2022-12-08T11:51:13.743Z,0.70
2022-12-08T11:53:48.383Z,0.70
2022-12-08T11:56:23.302Z,0.80
2022-12-08T11:58:55.375Z,0.70
2022-12-08T12:01:27.017Z,0.82
2022-12-08T12:04:04.430Z,0.85
2022-12-08T12:07:12.261Z,0.57
2022-12-08T12:09:58.202Z,0.47
2022-12-08T12:12:44.239Z,0.50
2022-12-08T12:15:37.792Z,1.15
2022-12-08T12:18:16.804Z,1.02
2022-12-08T12:20:53.618Z,1.00
2022-12-08T12:23:25.993Z,0.70
2022-12-08T12:25:58.300Z,0.70
2022-12-08T12:28:35.567Z,0.80
2022-12-08T12:31:08.345Z,1.02
2022-12-08T12:33:38.489Z,0.80
2022-12-08T12:36:10.782Z,0.80
2022-12-08T12:39:07.886Z,0.90
2022-12-08T12:41:44.178Z,1.35
2022-12-08T12:44:40.787Z,1.00
2022-12-08T12:47:14.976Z,0.98
2022-12-08T12:50:06.740Z,0.80
2022-12-08T12:52:46.655Z,0.70
2022-12-08T12:55:31.611Z,0.90
2022-12-08T12:58:05.550Z,0.60
2022-12-08T13:00:36.148Z,0.60
2022-12-08T13:03:05.365Z,0.70
2022-12-08T13:05:47.254Z,0.60
2022-12-08T13:08:23.209Z,0.75
2022-12-08T13:11:02.065Z,1.00
2022-12-08T13:13:31.439Z,1.70
2022-12-08T13:16:18.602Z,1.30
2022-12-08T13:18:51.165Z,1.50
2022-12-08T13:21:23.008Z,1.77
2022-12-08T13:24:13.205Z,1.60
2022-12-08T13:26:45.561Z,1.55
2022-12-08T13:29:21.154Z,1.50
2022-12-08T13:31:54.193Z,1.57
2022-12-08T13:34:30.019Z,1.30
2022-12-08T13:37:10.405Z,0.80
2022-12-08T13:39:46.664Z,0.55
2022-12-08T13:42:22.092Z,0.68
2022-12-08T13:48:20.364Z,1.50
2022-12-08T13:51:23.782Z,0.80
2022-12-08T13:59:28.728Z,0.90
2022-12-08T14:02:00.063Z,0.57
2022-12-08T14:05:09.162Z,0.80
2022-12-08T14:07:20.204Z,0.50
2022-12-08T14:09:49.438Z,0.70
2022-12-08T14:12:22.119Z,0.80
2022-12-08T14:15:03.319Z,0.73
2022-12-08T14:17:33.280Z,0.82
2022-12-08T14:20:17.931Z,0.82
2022-12-08T14:22:47.235Z,1.00
2022-12-08T14:25:18.230Z,1.20
2022-12-08T14:27:48.359Z,1.50
2022-12-08T14:30:22.340Z,1.98
2022-12-08T14:32:54.224Z,1.75
2022-12-08T14:35:27.073Z,1.80
2022-12-08T14:37:58.822Z,2.00
2022-12-08T14:40:33.832Z,1.83
2022-12-08T14:43:17.055Z,2.38
2022-12-08T14:45:50.939Z,1.85
2022-12-08T14:48:23.778Z,2.03
2022-12-08T14:51:03.017Z,1.93
2022-12-08T14:53:39.976Z,2.00
2022-12-08T14:56:11.358Z,2.47
2022-12-08T14:58:40.477Z,2.28
2022-12-08T15:01:10.641Z,2.63
2022-12-08T15:03:39.690Z,2.03
2022-12-08T15:06:10.734Z,2.08
2022-12-08T15:08:54.311Z,2.20
2022-12-08T15:11:34.141Z,2.00
2022-12-08T15:14:04.092Z,1.90
2022-12-08T15:16:40.832Z,2.00
2022-12-08T15:19:20.258Z,2.10
2022-12-08T15:21:50.664Z,1.95
2022-12-08T15:24:20.901Z,1.90
2022-12-08T15:26:51.834Z,1.95
2022-12-08T15:29:23.315Z,2.30
2022-12-08T15:31:54.006Z,1.90
2022-12-08T15:34:23.415Z,2.30
2022-12-08T15:36:55.179Z,2.53
2022-12-08T15:39:33.148Z,2.17
2022-12-08T15:42:03.532Z,2.97
2022-12-08T15:44:33.048Z,3.20
2022-12-08T15:47:02.660Z,3.33
2022-12-08T15:49:31.492Z,4.10
2022-12-08T15:52:11.188Z,3.92
2022-12-08T15:54:41.239Z,3.97
2022-12-08T15:57:33.217Z,4.05
2022-12-08T16:00:51.380Z,3.88
2022-12-08T16:03:59.864Z,3.90
2022-12-08T16:09:14.907Z,4.07
2022-12-08T16:12:07.028Z,3.72
2022-12-08T16:17:27.554Z,4.10
2022-12-08T16:19:56.674Z,4.32
2022-12-08T16:25:20.352Z,4.43
2022-12-08T16:28:08.406Z,3.95
2022-12-08T16:30:42.579Z,4.10
2022-12-08T16:33:12.777Z,3.85
2022-12-08T16:35:42.573Z,4.37
2022-12-08T16:38:15.789Z,4.43
2022-12-08T16:41:07.902Z,4.20
2022-12-08T16:43:36.950Z,4.43
2022-12-08T16:46:05.706Z,4.47
2022-12-08T16:48:35.057Z,5.63
2022-12-08T16:51:04.696Z,5.10
2022-12-08T16:53:33.675Z,4.53
2022-12-08T16:56:04.040Z,4.78
2022-12-08T16:58:33.018Z,5.30
2022-12-08T17:01:01.842Z,5.10
2022-12-08T17:03:31.470Z,5.47
2022-12-08T17:06:00.136Z,5.43
2022-12-08T17:08:29.200Z,5.65
2022-12-08T17:11:08.491Z,6.50
2022-12-08T17:13:42.980Z,5.00
2022-12-08T17:16:15.681Z,5.97
2022-12-08T17:18:44.885Z,5.90
2022-12-08T17:21:15.006Z,5.60
2022-12-08T17:23:45.274Z,6.32
2022-12-08T17:26:14.473Z,7.07
2022-12-08T17:29:00.155Z,6.35
2022-12-08T17:31:31.703Z,6.05
2022-12-08T17:34:03.211Z,6.20
2022-12-08T17:36:32.795Z,6.78
2022-12-08T17:39:02.362Z,6.87
2022-12-08T17:41:31.507Z,6.50
2022-12-08T17:44:01.671Z,6.72
2022-12-08T17:46:30.923Z,6.18
2022-12-08T17:48:59.534Z,6.90
2022-12-08T17:51:28.644Z,7.73
2022-12-08T17:53:57.356Z,7.03
2022-12-08T17:56:26.169Z,6.40
2022-12-08T17:58:55.505Z,6.95
2022-12-08T18:01:27.734Z,7.53
2022-12-08T18:03:56.610Z,7.30
2022-12-08T18:06:29.635Z,6.93
2022-12-08T18:09:01.796Z,6.97
2022-12-08T18:11:31.237Z,6.57
2022-12-08T18:14:00.238Z,6.75
2022-12-08T18:16:30.751Z,6.27
2022-12-08T18:18:59.828Z,6.15
2022-12-08T18:21:29.958Z,6.38
2022-12-08T18:23:58.813Z,6.35
2022-12-08T18:26:27.541Z,6.60
2022-12-08T18:28:56.579Z,6.40
2022-12-08T18:31:26.070Z,6.10
2022-12-08T18:33:56.846Z,6.72
2022-12-08T18:36:26.894Z,6.38
2022-12-08T18:38:55.981Z,6.47
2022-12-08T18:41:26.892Z,6.53
2022-12-08T18:43:57.454Z,6.53
2022-12-08T18:46:27.312Z,6.75
2022-12-08T18:48:58.347Z,6.80
2022-12-08T18:51:27.260Z,6.65
2022-12-08T18:53:55.917Z,6.97
2022-12-08T18:56:27.138Z,7.03
2022-12-08T18:59:02.866Z,5.75
2022-12-08T19:01:33.207Z,6.32
2022-12-08T19:04:27.373Z,6.72
2022-12-08T19:06:54.898Z,6.90
2022-12-08T19:09:24.710Z,7.38
2022-12-08T19:11:53.877Z,7.07
2022-12-08T19:14:27.755Z,6.80
2022-12-08T19:16:58.429Z,8.70
2022-12-08T19:19:29.549Z,7.77
2022-12-08T19:21:58.663Z,8.40
2022-12-08T19:24:27.564Z,8.40
2022-12-08T19:26:56.480Z,7.35
2022-12-08T19:29:25.225Z,8.20
2022-12-08T19:31:54.600Z,8.27
2022-12-08T19:34:23.456Z,7.93
2022-12-08T19:36:53.755Z,8.40
2022-12-08T19:39:42.112Z,8.70
2022-12-08T19:42:34.697Z,7.60
2022-12-08T19:45:11.419Z,7.87
2022-12-08T19:47:41.095Z,7.55
2022-12-08T19:50:28.651Z,8.00
2022-12-08T19:52:59.900Z,7.80
2022-12-08T19:55:29.105Z,7.50
2022-12-08T19:57:58.612Z,7.87
2022-12-08T20:00:27.675Z,8.52
2022-12-08T20:02:56.471Z,8.18
2022-12-08T20:05:26.075Z,8.57
2022-12-08T20:07:56.218Z,9.15
2022-12-08T20:10:29.203Z,10.70
2022-12-08T20:13:12.337Z,10.05
2022-12-08T20:15:42.196Z,10.15
2022-12-08T20:18:11.191Z,11.60
2022-12-08T20:20:40.619Z,11.85
2022-12-08T20:23:09.798Z,12.23
2022-12-08T20:25:41.159Z,11.30
2022-12-08T20:28:10.939Z,12.85
2022-12-08T20:30:40.043Z,11.77
2022-12-08T20:33:09.614Z,10.20
2022-12-08T20:35:38.231Z,8.93
2022-12-08T20:38:07.279Z,8.18
2022-12-08T20:40:36.399Z,7.97
2022-12-08T20:43:06.843Z,8.27
2022-12-08T20:45:35.439Z,7.03
2022-12-08T20:48:04.605Z,9.20
2022-12-08T20:50:33.357Z,9.50
2022-12-08T20:53:02.548Z,8.73
2022-12-08T20:55:31.495Z,9.63
2022-12-08T20:58:00.509Z,8.70
2022-12-08T21:00:31.033Z,8.50
2022-12-08T21:03:01.100Z,9.70
2022-12-08T21:05:30.218Z,9.43
2022-12-08T21:07:59.208Z,9.60
2022-12-08T21:10:28.279Z,9.40
2022-12-08T21:12:57.357Z,9.67
2022-12-08T21:15:26.310Z,9.45
2022-12-08T21:17:56.623Z,10.43
2022-12-08T21:20:25.706Z,9.95
2022-12-08T21:22:54.585Z,8.55
2022-12-08T21:25:23.471Z,9.13
2022-12-08T21:27:52.603Z,10.13
2022-12-08T21:30:21.477Z,9.27
2022-12-08T21:32:50.583Z,10.13
2022-12-08T21:35:20.705Z,8.93
2022-12-08T21:37:49.873Z,9.47
2022-12-08T21:40:19.213Z,9.25
2022-12-08T21:42:50.146Z,9.93
2022-12-08T21:45:21.021Z,9.25
2022-12-08T21:47:51.195Z,10.05
2022-12-08T21:50:21.812Z,10.77
2022-12-08T21:52:51.024Z,10.13
2022-12-08T21:55:20.476Z,10.75
2022-12-08T21:57:49.612Z,10.43
2022-12-08T22:00:19.952Z,11.20
2022-12-08T22:02:49.389Z,10.57
2022-12-08T22:05:18.432Z,11.20
2022-12-08T22:07:48.930Z,11.50
2022-12-08T22:10:21.189Z,12.40
2022-12-08T22:12:50.808Z,13.85
2022-12-08T22:15:19.611Z,12.67
2022-12-08T22:17:48.547Z,12.93
2022-12-08T22:20:17.714Z,12.13
2022-12-08T22:22:46.934Z,11.05
2022-12-08T22:25:17.678Z,11.27
2022-12-08T22:27:46.437Z,11.27
2022-12-08T22:30:15.400Z,9.93
2022-12-08T22:33:04.400Z,10.07
2022-12-08T22:35:38.948Z,10.25
2022-12-08T22:38:07.784Z,10.23
2022-12-08T22:40:41.349Z,9.57
2022-12-08T22:43:24.266Z,10.30
2022-12-08T22:45:53.628Z,10.50
2022-12-08T22:48:22.524Z,9.70
2022-12-08T22:51:02.453Z,11.23
2022-12-08T22:53:34.995Z,11.17
2022-12-08T22:56:18.672Z,10.82
2022-12-08T22:58:47.920Z,11.00
2022-12-08T23:01:29.388Z,10.07
2022-12-08T23:04:02.382Z,10.57
2022-12-08T23:06:40.982Z,10.33
2022-12-08T23:09:10.469Z,10.05
2022-12-08T23:11:40.678Z,10.48
2022-12-08T23:14:09.566Z,9.65
2022-12-08T23:16:38.521Z,9.23
2022-12-08T23:19:08.618Z,8.93
2022-12-08T23:21:37.361Z,8.98
2022-12-08T23:24:06.995Z,9.60
2022-12-08T23:26:36.088Z,9.20
2022-12-08T23:29:06.654Z,9.25
2022-12-08T23:31:36.163Z,9.47
2022-12-08T23:34:05.082Z,9.60
2022-12-08T23:36:33.607Z,8.85
2022-12-08T23:39:02.658Z,9.35
2022-12-08T23:41:31.196Z,9.65
2022-12-08T23:44:00.748Z,9.70
2022-12-08T23:46:31.088Z,9.88
2022-12-08T23:49:00.342Z,9.98
2022-12-08T23:51:28.982Z,10.32
2022-12-08T23:53:58.005Z,9.57
2022-12-08T23:56:30.462Z,10.07
2022-12-08T23:59:01.384Z,9.70
